sensor_id;sensor_type;location;lat;lon;timestamp;temperature;humidity
40023;DHT22;25713;-35.352;149.036;2022-07-03T00:02:06;10.60;94.00
40023;DHT22;25713;-35.352;149.036;2022-07-03T00:04:37;10.60;93.90
40023;DHT22;25713;-35.352;149.036;2022-07-03T00:07:07;10.60;93.70
40023;DHT22;25713;-35.352;149.036;2022-07-03T00:09:37;10.70;93.80
40023;DHT22;25713;-35.352;149.036;2022-07-03T00:12:07;10.70;93.70
40023;DHT22;25713;-35.352;149.036;2022-07-03T00:14:36;10.60;93.60
40023;DHT22;25713;-35.352;149.036;2022-07-03T00:17:06;10.60;94.10
40023;DHT22;25713;-35.352;149.036;2022-07-03T00:19:37;10.50;94.10
40023;DHT22;25713;-35.352;149.036;2022-07-03T00:22:11;10.50;94.20
40023;DHT22;25713;-35.352;149.036;2022-07-03T00:24:46;10.60;94.20
40023;DHT22;25713;-35.352;149.036;2022-07-03T00:27:18;10.60;94.40
40023;DHT22;25713;-35.352;149.036;2022-07-03T00:29:50;10.50;94.80
40023;DHT22;25713;-35.352;149.036;2022-07-03T00:32:23;10.50;94.30
40023;DHT22;25713;-35.352;149.036;2022-07-03T00:34:57;10.60;94.30
40023;DHT22;25713;-35.352;149.036;2022-07-03T00:37:26;10.70;94.10
40023;DHT22;25713;-35.352;149.036;2022-07-03T00:39:56;10.70;93.90
40023;DHT22;25713;-35.352;149.036;2022-07-03T00:42:28;10.70;93.90
40023;DHT22;25713;-35.352;149.036;2022-07-03T00:44:58;10.80;93.70
40023;DHT22;25713;-35.352;149.036;2022-07-03T00:47:29;10.70;93.80
40023;DHT22;25713;-35.352;149.036;2022-07-03T00:50:07;10.70;94.20
40023;DHT22;25713;-35.352;149.036;2022-07-03T00:52:37;10.70;94.20
40023;DHT22;25713;-35.352;149.036;2022-07-03T00:55:10;10.60;94.60
40023;DHT22;25713;-35.352;149.036;2022-07-03T00:57:45;10.70;94.50
40023;DHT22;25713;-35.352;149.036;2022-07-03T01:00:16;10.70;94.70
40023;DHT22;25713;-35.352;149.036;2022-07-03T01:02:51;10.70;94.80
40023;DHT22;25713;-35.352;149.036;2022-07-03T01:05:32;10.70;94.20
40023;DHT22;25713;-35.352;149.036;2022-07-03T01:08:10;10.70;94.60
40023;DHT22;25713;-35.352;149.036;2022-07-03T01:10:47;10.80;94.80
40023;DHT22;25713;-35.352;149.036;2022-07-03T01:13:23;10.80;94.80
40023;DHT22;25713;-35.352;149.036;2022-07-03T01:16:02;10.80;94.40
40023;DHT22;25713;-35.352;149.036;2022-07-03T01:18:45;10.70;94.60
40023;DHT22;25713;-35.352;149.036;2022-07-03T01:21:25;10.70;94.30
40023;DHT22;25713;-35.352;149.036;2022-07-03T01:27:07;10.70;94.40
40023;DHT22;25713;-35.352;149.036;2022-07-03T01:29:42;10.70;93.90
40023;DHT22;25713;-35.352;149.036;2022-07-03T01:32:16;10.70;94.40
40023;DHT22;25713;-35.352;149.036;2022-07-03T01:35:08;10.70;94.10
40023;DHT22;25713;-35.352;149.036;2022-07-03T01:37:41;10.70;94.00
40023;DHT22;25713;-35.352;149.036;2022-07-03T01:40:10;10.70;94.10
40023;DHT22;25713;-35.352;149.036;2022-07-03T01:42:42;10.70;94.10
40023;DHT22;25713;-35.352;149.036;2022-07-03T01:45:15;10.70;94.10
40023;DHT22;25713;-35.352;149.036;2022-07-03T01:47:48;10.70;94.00
40023;DHT22;25713;-35.352;149.036;2022-07-03T01:50:18;10.70;94.10
40023;DHT22;25713;-35.352;149.036;2022-07-03T01:52:51;10.70;93.80
40023;DHT22;25713;-35.352;149.036;2022-07-03T01:55:21;10.70;94.10
40023;DHT22;25713;-35.352;149.036;2022-07-03T01:57:54;10.80;94.10
40023;DHT22;25713;-35.352;149.036;2022-07-03T02:00:23;10.80;94.00
40023;DHT22;25713;-35.352;149.036;2022-07-03T02:02:57;10.80;94.20
40023;DHT22;25713;-35.352;149.036;2022-07-03T02:05:37;10.80;93.90
40023;DHT22;25713;-35.352;149.036;2022-07-03T02:11:16;10.80;94.40
40023;DHT22;25713;-35.352;149.036;2022-07-03T02:14:00;10.90;93.80
40023;DHT22;25713;-35.352;149.036;2022-07-03T02:16:43;10.90;93.80
40023;DHT22;25713;-35.352;149.036;2022-07-03T02:19:16;11.00;93.70
40023;DHT22;25713;-35.352;149.036;2022-07-03T02:21:49;11.00;93.90
40023;DHT22;25713;-35.352;149.036;2022-07-03T02:24:20;11.10;94.00
40023;DHT22;25713;-35.352;149.036;2022-07-03T02:26:54;11.00;94.00
40023;DHT22;25713;-35.352;149.036;2022-07-03T02:29:32;11.00;93.80
40023;DHT22;25713;-35.352;149.036;2022-07-03T02:32:04;11.00;93.10
40023;DHT22;25713;-35.352;149.036;2022-07-03T02:34:36;11.00;93.80
40023;DHT22;25713;-35.352;149.036;2022-07-03T02:37:11;11.10;93.80
40023;DHT22;25713;-35.352;149.036;2022-07-03T02:39:45;11.10;93.70
40023;DHT22;25713;-35.352;149.036;2022-07-03T02:42:28;11.20;93.60
40023;DHT22;25713;-35.352;149.036;2022-07-03T02:45:02;11.10;93.80
40023;DHT22;25713;-35.352;149.036;2022-07-03T02:47:40;11.20;94.40
40023;DHT22;25713;-35.352;149.036;2022-07-03T02:50:15;11.20;93.80
40023;DHT22;25713;-35.352;149.036;2022-07-03T02:52:54;11.30;93.20
40023;DHT22;25713;-35.352;149.036;2022-07-03T02:55:39;11.30;93.20
40023;DHT22;25713;-35.352;149.036;2022-07-03T03:01:16;11.30;93.30
40023;DHT22;25713;-35.352;149.036;2022-07-03T03:03:55;11.20;93.40
40023;DHT22;25713;-35.352;149.036;2022-07-03T03:06:29;11.30;93.30
40023;DHT22;25713;-35.352;149.036;2022-07-03T03:09:03;11.20;93.80
40023;DHT22;25713;-35.352;149.036;2022-07-03T03:11:40;11.30;93.70
40023;DHT22;25713;-35.352;149.036;2022-07-03T03:14:12;11.30;93.90
40023;DHT22;25713;-35.352;149.036;2022-07-03T03:16:47;11.30;93.90
40023;DHT22;25713;-35.352;149.036;2022-07-03T03:19:21;11.30;94.00
40023;DHT22;25713;-35.352;149.036;2022-07-03T03:21:58;11.40;94.10
40023;DHT22;25713;-35.352;149.036;2022-07-03T03:24:31;11.40;94.10
40023;DHT22;25713;-35.352;149.036;2022-07-03T03:27:02;11.40;94.00
40023;DHT22;25713;-35.352;149.036;2022-07-03T03:29:32;11.40;93.30
40023;DHT22;25713;-35.352;149.036;2022-07-03T03:32:04;11.40;93.50
40023;DHT22;25713;-35.352;149.036;2022-07-03T03:34:32;11.40;93.50
40023;DHT22;25713;-35.352;149.036;2022-07-03T03:37:02;11.50;93.70
40023;DHT22;25713;-35.352;149.036;2022-07-03T03:39:31;11.50;93.70
40023;DHT22;25713;-35.352;149.036;2022-07-03T03:42:01;11.50;93.80
40023;DHT22;25713;-35.352;149.036;2022-07-03T03:44:31;11.60;94.00
40023;DHT22;25713;-35.352;149.036;2022-07-03T03:47:02;11.60;94.00
40023;DHT22;25713;-35.352;149.036;2022-07-03T03:49:31;11.70;93.60
40023;DHT22;25713;-35.352;149.036;2022-07-03T03:52:01;11.60;93.20
40023;DHT22;25713;-35.352;149.036;2022-07-03T03:54:30;11.60;93.30
40023;DHT22;25713;-35.352;149.036;2022-07-03T03:57:16;11.50;93.50
40023;DHT22;25713;-35.352;149.036;2022-07-03T03:59:46;11.50;93.70
40023;DHT22;25713;-35.352;149.036;2022-07-03T04:02:17;11.50;93.40
40023;DHT22;25713;-35.352;149.036;2022-07-03T04:04:47;11.40;93.50
40023;DHT22;25713;-35.352;149.036;2022-07-03T04:07:16;11.50;93.70
40023;DHT22;25713;-35.352;149.036;2022-07-03T04:09:45;11.50;93.60
40023;DHT22;25713;-35.352;149.036;2022-07-03T04:12:15;11.50;93.40
40023;DHT22;25713;-35.352;149.036;2022-07-03T04:14:44;11.60;93.20
40023;DHT22;25713;-35.352;149.036;2022-07-03T04:17:13;11.60;93.40
40023;DHT22;25713;-35.352;149.036;2022-07-03T04:19:44;11.70;93.60
40023;DHT22;25713;-35.352;149.036;2022-07-03T04:22:14;11.70;93.60
40023;DHT22;25713;-35.352;149.036;2022-07-03T04:24:43;11.80;93.30
40023;DHT22;25713;-35.352;149.036;2022-07-03T04:27:12;11.90;93.20
40023;DHT22;25713;-35.352;149.036;2022-07-03T04:29:42;11.90;93.30
40023;DHT22;25713;-35.352;149.036;2022-07-03T04:32:11;11.80;93.40
40023;DHT22;25713;-35.352;149.036;2022-07-03T04:34:42;11.90;93.00
40023;DHT22;25713;-35.352;149.036;2022-07-03T04:37:12;11.80;92.90
40023;DHT22;25713;-35.352;149.036;2022-07-03T04:39:41;11.90;92.80
40023;DHT22;25713;-35.352;149.036;2022-07-03T04:42:11;11.80;92.80
40023;DHT22;25713;-35.352;149.036;2022-07-03T04:44:40;11.80;93.00
40023;DHT22;25713;-35.352;149.036;2022-07-03T04:47:09;11.80;92.90
40023;DHT22;25713;-35.352;149.036;2022-07-03T04:49:39;11.70;92.50
40023;DHT22;25713;-35.352;149.036;2022-07-03T04:52:10;11.70;92.40
40023;DHT22;25713;-35.352;149.036;2022-07-03T04:54:40;11.60;92.40
40023;DHT22;25713;-35.352;149.036;2022-07-03T04:57:10;11.70;92.50
40023;DHT22;25713;-35.352;149.036;2022-07-03T04:59:39;11.60;92.50
40023;DHT22;25713;-35.352;149.036;2022-07-03T05:02:08;11.60;92.50
40023;DHT22;25713;-35.352;149.036;2022-07-03T05:04:38;11.60;92.80
40023;DHT22;25713;-35.352;149.036;2022-07-03T05:07:09;11.60;92.40
40023;DHT22;25713;-35.352;149.036;2022-07-03T05:09:39;11.60;92.60
40023;DHT22;25713;-35.352;149.036;2022-07-03T05:12:09;11.60;92.70
40023;DHT22;25713;-35.352;149.036;2022-07-03T05:14:38;11.60;92.60
40023;DHT22;25713;-35.352;149.036;2022-07-03T05:17:07;11.60;92.60
40023;DHT22;25713;-35.352;149.036;2022-07-03T05:19:38;11.60;93.00
40023;DHT22;25713;-35.352;149.036;2022-07-03T05:22:10;11.50;93.30
40023;DHT22;25713;-35.352;149.036;2022-07-03T05:24:39;11.50;92.60
40023;DHT22;25713;-35.352;149.036;2022-07-03T05:27:09;11.50;93.20
40023;DHT22;25713;-35.352;149.036;2022-07-03T05:29:38;11.50;93.10
40023;DHT22;25713;-35.352;149.036;2022-07-03T05:32:08;11.50;93.50
40023;DHT22;25713;-35.352;149.036;2022-07-03T05:34:37;11.40;92.80
40023;DHT22;25713;-35.352;149.036;2022-07-03T05:37:07;11.40;93.00
40023;DHT22;25713;-35.352;149.036;2022-07-03T05:39:38;11.40;93.00
40023;DHT22;25713;-35.352;149.036;2022-07-03T05:42:07;11.40;92.70
40023;DHT22;25713;-35.352;149.036;2022-07-03T05:44:37;11.40;92.60
40023;DHT22;25713;-35.352;149.036;2022-07-03T05:47:06;11.40;93.20
40023;DHT22;25713;-35.352;149.036;2022-07-03T05:49:36;11.40;93.20
40023;DHT22;25713;-35.352;149.036;2022-07-03T05:52:05;11.40;92.80
40023;DHT22;25713;-35.352;149.036;2022-07-03T05:54:37;11.40;93.00
40023;DHT22;25713;-35.352;149.036;2022-07-03T05:57:06;11.40;93.30
40023;DHT22;25713;-35.352;149.036;2022-07-03T05:59:36;11.40;93.10
40023;DHT22;25713;-35.352;149.036;2022-07-03T06:02:05;11.40;93.70
40023;DHT22;25713;-35.352;149.036;2022-07-03T06:04:35;11.40;92.70
40023;DHT22;25713;-35.352;149.036;2022-07-03T06:07:04;11.40;92.50
40023;DHT22;25713;-35.352;149.036;2022-07-03T06:09:33;11.30;93.30
40023;DHT22;25713;-35.352;149.036;2022-07-03T06:12:05;11.30;93.30
40023;DHT22;25713;-35.352;149.036;2022-07-03T06:14:36;11.30;93.30
40023;DHT22;25713;-35.352;149.036;2022-07-03T06:17:06;11.40;93.20
40023;DHT22;25713;-35.352;149.036;2022-07-03T06:19:36;11.30;93.40
40023;DHT22;25713;-35.352;149.036;2022-07-03T06:22:07;11.30;93.20
40023;DHT22;25713;-35.352;149.036;2022-07-03T06:24:38;11.30;92.80
40023;DHT22;25713;-35.352;149.036;2022-07-03T06:27:11;11.30;92.80
40023;DHT22;25713;-35.352;149.036;2022-07-03T06:29:41;11.30;92.70
40023;DHT22;25713;-35.352;149.036;2022-07-03T06:32:10;11.30;92.40
40023;DHT22;25713;-35.352;149.036;2022-07-03T06:34:39;11.30;92.90
40023;DHT22;25713;-35.352;149.036;2022-07-03T06:37:09;11.20;93.30
40023;DHT22;25713;-35.352;149.036;2022-07-03T06:39:39;11.20;92.30
40023;DHT22;25713;-35.352;149.036;2022-07-03T06:42:10;11.20;92.30
40023;DHT22;25713;-35.352;149.036;2022-07-03T06:44:40;11.20;92.20
40023;DHT22;25713;-35.352;149.036;2022-07-03T06:47:09;11.20;92.50
40023;DHT22;25713;-35.352;149.036;2022-07-03T06:49:39;11.20;92.30
40023;DHT22;25713;-35.352;149.036;2022-07-03T06:52:09;11.20;92.10
40023;DHT22;25713;-35.352;149.036;2022-07-03T06:54:39;11.20;91.90
40023;DHT22;25713;-35.352;149.036;2022-07-03T06:57:11;11.10;92.10
40023;DHT22;25713;-35.352;149.036;2022-07-03T06:59:41;11.20;92.30
40023;DHT22;25713;-35.352;149.036;2022-07-03T07:02:11;11.10;92.20
40023;DHT22;25713;-35.352;149.036;2022-07-03T07:04:42;11.10;91.90
40023;DHT22;25713;-35.352;149.036;2022-07-03T07:07:12;11.10;92.40
40023;DHT22;25713;-35.352;149.036;2022-07-03T07:09:42;11.10;92.60
40023;DHT22;25713;-35.352;149.036;2022-07-03T07:12:14;11.10;92.80
40023;DHT22;25713;-35.352;149.036;2022-07-03T07:14:44;11.10;92.30
40023;DHT22;25713;-35.352;149.036;2022-07-03T07:17:14;11.10;92.50
40023;DHT22;25713;-35.352;149.036;2022-07-03T07:19:43;11.10;92.60
40023;DHT22;25713;-35.352;149.036;2022-07-03T07:22:13;11.00;92.80
40023;DHT22;25713;-35.352;149.036;2022-07-03T07:24:43;11.10;92.50
40023;DHT22;25713;-35.352;149.036;2022-07-03T07:27:15;11.00;92.50
40023;DHT22;25713;-35.352;149.036;2022-07-03T07:29:45;11.00;92.30
40023;DHT22;25713;-35.352;149.036;2022-07-03T07:32:16;11.00;92.50
40023;DHT22;25713;-35.352;149.036;2022-07-03T07:34:46;11.00;92.30
40023;DHT22;25713;-35.352;149.036;2022-07-03T07:37:16;11.00;92.00
40023;DHT22;25713;-35.352;149.036;2022-07-03T07:39:46;11.00;91.90
40023;DHT22;25713;-35.352;149.036;2022-07-03T07:42:18;11.00;92.10
40023;DHT22;25713;-35.352;149.036;2022-07-03T07:44:48;11.00;92.00
40023;DHT22;25713;-35.352;149.036;2022-07-03T07:47:18;11.00;92.00
40023;DHT22;25713;-35.352;149.036;2022-07-03T07:49:47;11.00;92.10
40023;DHT22;25713;-35.352;149.036;2022-07-03T07:52:17;11.00;92.10
40023;DHT22;25713;-35.352;149.036;2022-07-03T07:54:47;10.90;91.40
40023;DHT22;25713;-35.352;149.036;2022-07-03T07:57:19;10.90;91.90
40023;DHT22;25713;-35.352;149.036;2022-07-03T07:59:49;10.90;91.80
40023;DHT22;25713;-35.352;149.036;2022-07-03T08:02:19;10.90;92.00
40023;DHT22;25713;-35.352;149.036;2022-07-03T08:04:48;10.90;91.80
40023;DHT22;25713;-35.352;149.036;2022-07-03T08:07:18;10.90;91.80
40023;DHT22;25713;-35.352;149.036;2022-07-03T08:09:48;10.90;92.10
40023;DHT22;25713;-35.352;149.036;2022-07-03T08:12:20;10.90;91.70
40023;DHT22;25713;-35.352;149.036;2022-07-03T08:14:49;10.90;91.70
40023;DHT22;25713;-35.352;149.036;2022-07-03T08:17:19;10.80;91.40
40023;DHT22;25713;-35.352;149.036;2022-07-03T08:19:49;10.80;91.50
40023;DHT22;25713;-35.352;149.036;2022-07-03T08:22:19;10.80;91.70
40023;DHT22;25713;-35.352;149.036;2022-07-03T08:24:49;10.80;91.70
40023;DHT22;25713;-35.352;149.036;2022-07-03T08:27:21;10.80;91.70
40023;DHT22;25713;-35.352;149.036;2022-07-03T08:29:52;10.70;91.40
40023;DHT22;25713;-35.352;149.036;2022-07-03T08:32:22;10.80;92.00
40023;DHT22;25713;-35.352;149.036;2022-07-03T08:34:52;10.90;91.60
40023;DHT22;25713;-35.352;149.036;2022-07-03T08:37:23;10.90;91.70
40023;DHT22;25713;-35.352;149.036;2022-07-03T08:39:53;10.90;91.80
40023;DHT22;25713;-35.352;149.036;2022-07-03T08:42:26;10.90;91.50
40023;DHT22;25713;-35.352;149.036;2022-07-03T08:44:58;10.90;91.20
40023;DHT22;25713;-35.352;149.036;2022-07-03T08:47:32;10.80;91.40
40023;DHT22;25713;-35.352;149.036;2022-07-03T08:50:03;10.80;91.30
40023;DHT22;25713;-35.352;149.036;2022-07-03T08:52:34;10.80;91.40
40023;DHT22;25713;-35.352;149.036;2022-07-03T08:55:05;10.80;91.10
40023;DHT22;25713;-35.352;149.036;2022-07-03T08:57:37;10.90;91.20
40023;DHT22;25713;-35.352;149.036;2022-07-03T09:00:09;10.90;90.90
40023;DHT22;25713;-35.352;149.036;2022-07-03T09:02:41;10.90;90.70
40023;DHT22;25713;-35.352;149.036;2022-07-03T09:05:12;10.90;91.20
40023;DHT22;25713;-35.352;149.036;2022-07-03T09:07:43;10.80;91.20
40023;DHT22;25713;-35.352;149.036;2022-07-03T09:10:14;10.80;91.20
40023;DHT22;25713;-35.352;149.036;2022-07-03T09:12:47;10.70;91.20
40023;DHT22;25713;-35.352;149.036;2022-07-03T09:15:16;10.80;91.20
40023;DHT22;25713;-35.352;149.036;2022-07-03T09:17:59;10.80;90.70
40023;DHT22;25713;-35.352;149.036;2022-07-03T09:20:30;10.80;91.50
40023;DHT22;25713;-35.352;149.036;2022-07-03T09:23:15;10.80;91.40
40023;DHT22;25713;-35.352;149.036;2022-07-03T09:25:58;10.80;91.20
40023;DHT22;25713;-35.352;149.036;2022-07-03T09:28:45;10.80;91.20
40023;DHT22;25713;-35.352;149.036;2022-07-03T09:31:16;10.80;90.90
40023;DHT22;25713;-35.352;149.036;2022-07-03T09:33:55;10.90;91.00
40023;DHT22;25713;-35.352;149.036;2022-07-03T09:36:39;10.80;91.10
40023;DHT22;25713;-35.352;149.036;2022-07-03T09:39:19;10.90;90.60
40023;DHT22;25713;-35.352;149.036;2022-07-03T09:41:56;10.80;90.70
40023;DHT22;25713;-35.352;149.036;2022-07-03T09:44:35;10.80;90.80
40023;DHT22;25713;-35.352;149.036;2022-07-03T09:47:09;10.70;91.20
40023;DHT22;25713;-35.352;149.036;2022-07-03T09:49:56;10.70;90.90
40023;DHT22;25713;-35.352;149.036;2022-07-03T09:52:35;10.60;91.40
40023;DHT22;25713;-35.352;149.036;2022-07-03T09:55:17;10.60;91.30
40023;DHT22;25713;-35.352;149.036;2022-07-03T09:57:58;10.70;91.20
40023;DHT22;25713;-35.352;149.036;2022-07-03T10:00:30;10.70;91.60
40023;DHT22;25713;-35.352;149.036;2022-07-03T10:03:01;10.70;91.10
40023;DHT22;25713;-35.352;149.036;2022-07-03T10:05:31;10.70;90.90
40023;DHT22;25713;-35.352;149.036;2022-07-03T10:08:05;10.70;91.20
40023;DHT22;25713;-35.352;149.036;2022-07-03T10:10:37;10.70;90.90
40023;DHT22;25713;-35.352;149.036;2022-07-03T10:13:07;10.60;91.20
40023;DHT22;25713;-35.352;149.036;2022-07-03T10:15:40;10.70;91.40
40023;DHT22;25713;-35.352;149.036;2022-07-03T10:18:10;10.70;91.30
40023;DHT22;25713;-35.352;149.036;2022-07-03T10:20:47;10.70;91.00
40023;DHT22;25713;-35.352;149.036;2022-07-03T10:23:20;10.70;91.00
40023;DHT22;25713;-35.352;149.036;2022-07-03T10:25:49;10.70;90.90
40023;DHT22;25713;-35.352;149.036;2022-07-03T10:28:19;10.60;91.10
40023;DHT22;25713;-35.352;149.036;2022-07-03T10:30:51;10.70;91.00
40023;DHT22;25713;-35.352;149.036;2022-07-03T10:33:21;10.70;91.10
40023;DHT22;25713;-35.352;149.036;2022-07-03T10:35:52;10.70;91.10
40023;DHT22;25713;-35.352;149.036;2022-07-03T10:38:36;10.70;91.00
40023;DHT22;25713;-35.352;149.036;2022-07-03T10:41:13;10.70;91.20
40023;DHT22;25713;-35.352;149.036;2022-07-03T10:43:46;10.70;90.80
40023;DHT22;25713;-35.352;149.036;2022-07-03T10:46:21;10.70;91.00
40023;DHT22;25713;-35.352;149.036;2022-07-03T10:49:01;10.60;90.70
40023;DHT22;25713;-35.352;149.036;2022-07-03T10:54:21;10.70;91.00
40023;DHT22;25713;-35.352;149.036;2022-07-03T10:57:15;10.70;91.00
40023;DHT22;25713;-35.352;149.036;2022-07-03T11:02:50;10.80;90.40
40023;DHT22;25713;-35.352;149.036;2022-07-03T11:05:26;10.70;90.90
40023;DHT22;25713;-35.352;149.036;2022-07-03T11:08:12;10.70;91.00
40023;DHT22;25713;-35.352;149.036;2022-07-03T11:10:43;10.70;91.30
40023;DHT22;25713;-35.352;149.036;2022-07-03T11:13:16;10.80;91.20
40023;DHT22;25713;-35.352;149.036;2022-07-03T11:15:48;10.70;90.40
40023;DHT22;25713;-35.352;149.036;2022-07-03T11:18:26;10.60;90.70
40023;DHT22;25713;-35.352;149.036;2022-07-03T11:21:24;10.60;90.90
40023;DHT22;25713;-35.352;149.036;2022-07-03T11:27:33;10.60;91.30
40023;DHT22;25713;-35.352;149.036;2022-07-03T11:30:03;10.70;90.70
40023;DHT22;25713;-35.352;149.036;2022-07-03T11:32:49;10.70;90.50
40023;DHT22;25713;-35.352;149.036;2022-07-03T11:35:48;10.60;90.50
40023;DHT22;25713;-35.352;149.036;2022-07-03T11:38:20;10.70;90.30
40023;DHT22;25713;-35.352;149.036;2022-07-03T11:40:50;10.60;90.60
40023;DHT22;25713;-35.352;149.036;2022-07-03T11:43:20;10.60;90.60
40023;DHT22;25713;-35.352;149.036;2022-07-03T11:45:49;10.60;90.90
40023;DHT22;25713;-35.352;149.036;2022-07-03T11:48:21;10.60;90.80
40023;DHT22;25713;-35.352;149.036;2022-07-03T11:50:58;10.60;90.70
40023;DHT22;25713;-35.352;149.036;2022-07-03T11:53:30;10.60;90.90
40023;DHT22;25713;-35.352;149.036;2022-07-03T11:56:01;10.50;90.60
40023;DHT22;25713;-35.352;149.036;2022-07-03T11:58:44;10.60;90.50
40023;DHT22;25713;-35.352;149.036;2022-07-03T12:01:29;10.60;90.50
40023;DHT22;25713;-35.352;149.036;2022-07-03T12:04:07;10.50;90.60
40023;DHT22;25713;-35.352;149.036;2022-07-03T12:06:39;10.50;90.90
40023;DHT22;25713;-35.352;149.036;2022-07-03T12:09:17;10.50;90.80
40023;DHT22;25713;-35.352;149.036;2022-07-03T12:11:55;10.60;91.00
40023;DHT22;25713;-35.352;149.036;2022-07-03T12:14:42;10.60;90.60
40023;DHT22;25713;-35.352;149.036;2022-07-03T12:17:12;10.60;90.80
40023;DHT22;25713;-35.352;149.036;2022-07-03T12:19:46;10.60;90.90
40023;DHT22;25713;-35.352;149.036;2022-07-03T12:22:26;10.60;90.60
40023;DHT22;25713;-35.352;149.036;2022-07-03T12:25:02;10.60;90.90
40023;DHT22;25713;-35.352;149.036;2022-07-03T12:27:34;10.60;90.80
40023;DHT22;25713;-35.352;149.036;2022-07-03T12:30:04;10.60;91.10
40023;DHT22;25713;-35.352;149.036;2022-07-03T12:32:34;10.50;91.00
40023;DHT22;25713;-35.352;149.036;2022-07-03T12:35:04;10.50;91.10
40023;DHT22;25713;-35.352;149.036;2022-07-03T12:37:37;10.50;91.10
40023;DHT22;25713;-35.352;149.036;2022-07-03T12:40:08;10.50;91.20
40023;DHT22;25713;-35.352;149.036;2022-07-03T12:42:48;10.60;91.20
40023;DHT22;25713;-35.352;149.036;2022-07-03T12:45:18;10.60;91.30
40023;DHT22;25713;-35.352;149.036;2022-07-03T12:47:58;10.50;90.90
40023;DHT22;25713;-35.352;149.036;2022-07-03T12:53:26;10.50;91.00
40023;DHT22;25713;-35.352;149.036;2022-07-03T12:56:01;10.40;91.30
40023;DHT22;25713;-35.352;149.036;2022-07-03T12:58:31;10.40;91.50
40023;DHT22;25713;-35.352;149.036;2022-07-03T13:01:03;10.50;91.10
40023;DHT22;25713;-35.352;149.036;2022-07-03T13:03:35;10.50;91.40
40023;DHT22;25713;-35.352;149.036;2022-07-03T13:06:13;10.50;91.60
40023;DHT22;25713;-35.352;149.036;2022-07-03T13:08:54;10.50;91.10
40023;DHT22;25713;-35.352;149.036;2022-07-03T13:11:30;10.50;91.60
40023;DHT22;25713;-35.352;149.036;2022-07-03T13:14:09;10.50;91.70
40023;DHT22;25713;-35.352;149.036;2022-07-03T13:16:43;10.50;91.50
40023;DHT22;25713;-35.352;149.036;2022-07-03T13:19:13;10.50;91.30
40023;DHT22;25713;-35.352;149.036;2022-07-03T13:21:43;10.60;91.70
40023;DHT22;25713;-35.352;149.036;2022-07-03T13:24:16;10.60;91.40
40023;DHT22;25713;-35.352;149.036;2022-07-03T13:26:45;10.60;91.40
40023;DHT22;25713;-35.352;149.036;2022-07-03T13:29:14;10.60;91.90
40023;DHT22;25713;-35.352;149.036;2022-07-03T13:31:44;10.50;92.00
40023;DHT22;25713;-35.352;149.036;2022-07-03T13:34:13;10.60;91.70
40023;DHT22;25713;-35.352;149.036;2022-07-03T13:36:43;10.50;91.40
40023;DHT22;25713;-35.352;149.036;2022-07-03T13:39:14;10.50;91.40
40023;DHT22;25713;-35.352;149.036;2022-07-03T13:41:43;10.50;91.80
40023;DHT22;25713;-35.352;149.036;2022-07-03T13:44:13;10.50;91.30
40023;DHT22;25713;-35.352;149.036;2022-07-03T13:46:42;10.50;91.40
40023;DHT22;25713;-35.352;149.036;2022-07-03T13:49:12;10.40;91.80
40023;DHT22;25713;-35.352;149.036;2022-07-03T13:51:41;10.50;91.60
40023;DHT22;25713;-35.352;149.036;2022-07-03T13:54:11;10.50;91.30
40023;DHT22;25713;-35.352;149.036;2022-07-03T13:56:42;10.50;91.40
40023;DHT22;25713;-35.352;149.036;2022-07-03T13:59:11;10.50;91.00
40023;DHT22;25713;-35.352;149.036;2022-07-03T14:01:41;10.50;91.10
40023;DHT22;25713;-35.352;149.036;2022-07-03T14:04:11;10.50;90.90
40023;DHT22;25713;-35.352;149.036;2022-07-03T14:06:40;10.50;90.90
40023;DHT22;25713;-35.352;149.036;2022-07-03T14:09:10;10.50;90.80
40023;DHT22;25713;-35.352;149.036;2022-07-03T14:11:41;10.50;90.80
40023;DHT22;25713;-35.352;149.036;2022-07-03T14:14:11;10.40;91.00
40023;DHT22;25713;-35.352;149.036;2022-07-03T14:16:40;10.50;91.70
40023;DHT22;25713;-35.352;149.036;2022-07-03T14:19:10;10.40;90.70
40023;DHT22;25713;-35.352;149.036;2022-07-03T14:21:39;10.40;91.30
40023;DHT22;25713;-35.352;149.036;2022-07-03T14:24:09;10.40;90.40
40023;DHT22;25713;-35.352;149.036;2022-07-03T14:26:38;10.40;91.10
40023;DHT22;25713;-35.352;149.036;2022-07-03T14:29:10;10.40;91.60
40023;DHT22;25713;-35.352;149.036;2022-07-03T14:31:39;10.40;90.90
40023;DHT22;25713;-35.352;149.036;2022-07-03T14:34:09;10.40;90.50
40023;DHT22;25713;-35.352;149.036;2022-07-03T14:36:38;10.40;91.50
40023;DHT22;25713;-35.352;149.036;2022-07-03T14:39:07;10.40;91.10
40023;DHT22;25713;-35.352;149.036;2022-07-03T14:41:37;10.40;90.90
40023;DHT22;25713;-35.352;149.036;2022-07-03T14:44:08;10.30;90.80
40023;DHT22;25713;-35.352;149.036;2022-07-03T14:46:38;10.40;91.90
40023;DHT22;25713;-35.352;149.036;2022-07-03T14:49:07;10.40;91.40
40023;DHT22;25713;-35.352;149.036;2022-07-03T14:51:36;10.40;91.40
40023;DHT22;25713;-35.352;149.036;2022-07-03T15:56:03;10.20;91.00
40023;DHT22;25713;-35.352;149.036;2022-07-03T15:58:33;10.10;91.40
40023;DHT22;25713;-35.352;149.036;2022-07-03T16:01:04;10.20;91.10
40023;DHT22;25713;-35.352;149.036;2022-07-03T16:03:36;10.00;91.60
40023;DHT22;25713;-35.352;149.036;2022-07-03T16:06:08;10.00;91.60
40023;DHT22;25713;-35.352;149.036;2022-07-03T16:08:41;10.10;91.50
40023;DHT22;25713;-35.352;149.036;2022-07-03T16:11:18;10.10;91.40
40023;DHT22;25713;-35.352;149.036;2022-07-03T16:13:49;10.20;91.60
40023;DHT22;25713;-35.352;149.036;2022-07-03T16:16:22;10.30;91.20
40023;DHT22;25713;-35.352;149.036;2022-07-03T16:18:54;10.30;90.70
40023;DHT22;25713;-35.352;149.036;2022-07-03T16:21:25;10.30;91.10
40023;DHT22;25713;-35.352;149.036;2022-07-03T16:23:56;10.30;90.90
40023;DHT22;25713;-35.352;149.036;2022-07-03T16:26:29;10.30;91.00
40023;DHT22;25713;-35.352;149.036;2022-07-03T16:28:59;10.30;91.00
40023;DHT22;25713;-35.352;149.036;2022-07-03T16:31:35;10.30;90.70
40023;DHT22;25713;-35.352;149.036;2022-07-03T16:34:13;10.30;90.50
40023;DHT22;25713;-35.352;149.036;2022-07-03T16:36:47;10.20;90.10
40023;DHT22;25713;-35.352;149.036;2022-07-03T16:39:25;10.20;90.60
40023;DHT22;25713;-35.352;149.036;2022-07-03T16:41:58;10.30;90.80
40023;DHT22;25713;-35.352;149.036;2022-07-03T16:44:28;10.30;90.80